Time;durP1;ratioP1;P1;durP2;ratioP2;P2;SDS_P1;SDS_P2;PMS_P1;PMS_P2;Temp;Humidity;BMP_temperature;BMP_pressure;BME280_temperature;BME280_humidity;BME280_pressure;Samples;Min_cycle;Max_cycle;Signal;HPM_P1;HPM_P2
2023/05/14 00:00:54;;;;;;;6.63;5.00;;;;;;;;;;5056436;28;20230;-84
2023/05/14 00:03:21;;;;;;;7.80;5.60;;;;;;;;;;5065484;28;20234;-85
2023/05/14 00:05:49;;;;;;;10.37;5.03;;;;;;;;;;5052562;28;20228;-85
2023/05/14 00:08:17;;;;;;;5.60;5.10;;;;;;;;;;5053734;28;20213;-85
2023/05/14 00:10:44;;;;;;;5.00;4.60;;;;;;;;;;5055637;28;20225;-84
2023/05/14 00:13:11;;;;;;;5.37;4.87;;;;;;;;;;5058172;28;20738;-85
2023/05/14 00:15:38;;;;;;;5.83;5.07;;;;;;;;;;5052851;28;20234;-85
2023/05/14 00:18:05;;;;;;;5.13;4.70;;;;;;;;;;5052790;28;20206;-85
2023/05/14 00:20:32;;;;;;;5.60;5.10;;;;;;;;;;5052331;28;20699;-85
2023/05/14 00:22:59;;;;;;;8.90;5.30;;;;;;;;;;5052451;28;20225;-85
2023/05/14 00:25:28;;;;;;;5.40;5.00;;;;;;;;;;5049254;28;20234;-85
2023/05/14 00:27:55;;;;;;;5.20;4.80;;;;;;;;;;5052502;28;20206;-85
2023/05/14 00:30:22;;;;;;;5.20;4.53;;;;;;;;;;5060035;28;20202;-85
2023/05/14 00:32:49;;;;;;;7.07;4.80;;;;;;;;;;5061572;28;20238;-85
2023/05/14 00:35:16;;;;;;;6.10;5.17;;;;;;;;;;5055858;28;20670;-86
2023/05/14 00:37:44;;;;;;;5.50;5.00;;;;;;;;;;5052664;28;20228;-85
2023/05/14 00:40:11;;;;;;;6.03;5.13;;;;;;;;;;5060156;28;20206;-85
2023/05/14 00:42:40;;;;;;;6.53;5.07;;;;;;;;;;5054228;28;20291;-85
2023/05/14 00:45:08;;;;;;;6.77;4.43;;;;;;;;;;5063214;28;20221;-85
2023/05/14 00:47:35;;;;;;;6.10;5.53;;;;;;;;;;5051502;28;20232;-84
2023/05/14 00:50:03;;;;;;;5.23;4.73;;;;;;;;;;5046228;28;20208;-85
2023/05/14 00:52:30;;;;;;;6.23;5.10;;;;;;;;;;5043650;28;20222;-85
2023/05/14 00:54:57;;;;;;;4.33;4.00;;;;;;;;;;5047682;28;20210;-85
2023/05/14 00:57:24;;;;;;;5.00;4.30;;;;;;;;;;5057216;28;20230;-84
2023/05/14 00:59:53;;;;;;;4.90;4.50;;;;;;;;;;5059577;28;20234;-84
2023/05/14 01:02:20;;;;;;;5.40;4.80;;;;;;;;;;5056575;28;20229;-85
2023/05/14 01:04:47;;;;;;;4.70;4.30;;;;;;;;;;5046741;28;20194;-85
2023/05/14 01:07:18;;;;;;;5.17;4.30;;;;;;;;;;5063937;28;20237;-85
2023/05/14 01:09:50;;;;;;;5.77;4.80;;;;;;;;;;5054961;28;20202;-84
2023/05/14 01:12:19;;;;;;;5.10;4.37;;;;;;;;;;5054823;28;20321;-85
2023/05/14 01:14:51;;;;;;;6.93;4.70;;;;;;;;;;5054947;28;20667;-84
2023/05/14 01:17:22;;;;;;;6.40;5.10;;;;;;;;;;5047406;28;20229;-84
2023/05/14 01:19:51;;;;;;;5.27;4.77;;;;;;;;;;5056145;28;20213;-85
2023/05/14 01:22:20;;;;;;;9.20;5.00;;;;;;;;;;5046398;28;20226;-85
2023/05/14 01:24:47;;;;;;;5.63;4.70;;;;;;;;;;5058438;28;20194;-85
2023/05/14 01:27:30;;;;;;;6.13;4.93;;;;;;;;;;5059072;28;20606;-84
2023/05/14 01:29:59;;;;;;;6.90;5.93;;;;;;;;;;5047032;28;20198;-85
2023/05/14 01:32:27;;;;;;;6.37;4.00;;;;;;;;;;5038566;28;20238;-84
2023/05/14 01:34:55;;;;;;;4.87;4.10;;;;;;;;;;5058062;28;20194;-85
2023/05/14 01:37:25;;;;;;;5.63;4.10;;;;;;;;;;5050615;28;20308;-85
2023/05/14 01:39:52;;;;;;;5.23;4.37;;;;;;;;;;5054981;28;20198;-84
2023/05/14 01:42:19;;;;;;;8.67;4.50;;;;;;;;;;5046299;28;20672;-85
2023/05/14 01:44:46;;;;;;;6.03;4.43;;;;;;;;;;5053815;28;20206;-84
2023/05/14 01:47:13;;;;;;;4.90;4.50;;;;;;;;;;5062183;28;20237;-85
2023/05/14 01:49:40;;;;;;;4.77;4.37;;;;;;;;;;5049369;28;20564;-85
2023/05/14 01:52:08;;;;;;;5.70;5.20;;;;;;;;;;5064265;28;20240;-85
2023/05/14 01:54:36;;;;;;;5.30;4.80;;;;;;;;;;5046132;28;20307;-85
2023/05/14 01:57:03;;;;;;;6.10;4.50;;;;;;;;;;5045584;28;20234;-85
2023/05/14 01:59:30;;;;;;;4.67;4.27;;;;;;;;;;5045818;28;20194;-83
2023/05/14 02:01:57;;;;;;;4.50;4.10;;;;;;;;;;5053547;28;20241;-85
2023/05/14 02:04:24;;;;;;;4.30;3.90;;;;;;;;;;5061571;28;20221;-84
2023/05/14 02:06:51;;;;;;;5.17;4.10;;;;;;;;;;5050378;28;20735;-84
2023/05/14 02:09:18;;;;;;;5.07;4.67;;;;;;;;;;5041652;28;20202;-84
2023/05/14 02:11:47;;;;;;;4.90;4.23;;;;;;;;;;5062087;28;20237;-84
2023/05/14 02:14:14;;;;;;;4.77;4.40;;;;;;;;;;5060423;28;20206;-85
2023/05/14 02:16:41;;;;;;;6.30;4.13;;;;;;;;;;5057032;28;20229;-85
2023/05/14 02:19:08;;;;;;;4.67;4.27;;;;;;;;;;5065436;28;20205;-84
2023/05/14 02:21:35;;;;;;;5.50;4.80;;;;;;;;;;5047211;28;20237;-84
2023/05/14 02:24:02;;;;;;;5.87;4.90;;;;;;;;;;5061580;28;20233;-84
2023/05/14 02:26:29;;;;;;;5.50;5.00;;;;;;;;;;5061017;28;20598;-85
2023/05/14 02:28:58;;;;;;;5.90;5.30;;;;;;;;;;5053584;28;20672;-85
2023/05/14 02:31:25;;;;;;;5.67;5.00;;;;;;;;;;5061282;28;20238;-84
2023/05/14 02:33:52;;;;;;;5.33;4.83;;;;;;;;;;5061792;28;20201;-85
2023/05/14 02:36:19;;;;;;;5.70;5.07;;;;;;;;;;5048940;28;20234;-84
2023/05/14 02:38:46;;;;;;;5.20;4.60;;;;;;;;;;5052665;28;20217;-84
2023/05/14 02:41:13;;;;;;;5.03;4.63;;;;;;;;;;5062180;28;20244;-84
2023/05/14 02:43:41;;;;;;;7.53;4.60;;;;;;;;;;5064211;22;20586;-93
2023/05/14 02:46:09;;;;;;;6.13;4.73;;;;;;;;;;5058180;28;20237;-91
2023/05/14 02:48:36;;;;;;;7.27;4.77;;;;;;;;;;5059489;28;20210;-91
2023/05/14 02:51:03;;;;;;;5.90;4.67;;;;;;;;;;5058941;28;20233;-91
2023/05/14 02:53:30;;;;;;;4.73;4.33;;;;;;;;;;5067698;28;20221;-91
2023/05/14 02:55:58;;;;;;;4.37;4.07;;;;;;;;;;5078879;28;20240;-91
2023/05/14 02:58:25;;;;;;;4.40;4.03;;;;;;;;;;5071285;28;20186;-92
2023/05/14 03:00:52;;;;;;;4.80;4.20;;;;;;;;;;5058851;28;20229;-92
2023/05/14 03:03:20;;;;;;;6.30;4.30;;;;;;;;;;5058288;28;20310;-91
2023/05/14 03:05:47;;;;;;;5.83;4.23;;;;;;;;;;5057323;28;20259;-91
2023/05/14 03:08:15;;;;;;;5.10;4.27;;;;;;;;;;5058290;28;20214;-92
2023/05/14 03:10:42;;;;;;;6.53;4.20;;;;;;;;;;5057525;28;20864;-92
2023/05/14 03:13:09;;;;;;;5.07;4.57;;;;;;;;;;5058909;28;20232;-92
2023/05/14 03:15:36;;;;;;;4.77;4.40;;;;;;;;;;5058208;28;20249;-91
2023/05/14 03:18:03;;;;;;;5.13;4.13;;;;;;;;;;5058756;28;20190;-92
2023/05/14 03:20:32;;;;;;;5.03;3.90;;;;;;;;;;5058742;28;20225;-92
2023/05/14 03:22:59;;;;;;;4.83;4.07;;;;;;;;;;5058285;28;20234;-94
2023/05/14 03:25:26;;;;;;;4.70;4.00;;;;;;;;;;5057734;28;20237;-91
2023/05/14 03:27:53;;;;;;;4.70;4.30;;;;;;;;;;5058756;28;20782;-91
2023/05/14 03:30:20;;;;;;;7.03;4.73;;;;;;;;;;5059083;28;20203;-92
2023/05/14 03:32:47;;;;;;;7.03;4.73;;;;;;;;;;5069567;28;20217;-91
2023/05/14 03:35:14;;;;;;;4.93;4.53;;;;;;;;;;5069783;28;20671;-91
2023/05/14 03:37:43;;;;;;;5.43;4.30;;;;;;;;;;5079014;28;20205;-92
2023/05/14 03:40:10;;;;;;;5.57;3.90;;;;;;;;;;5064424;28;20312;-91
2023/05/14 03:42:37;;;;;;;4.70;4.30;;;;;;;;;;5058724;28;20226;-95
2023/05/14 03:45:05;;;;;;;5.17;4.10;;;;;;;;;;5058005;28;20297;-94
2023/05/14 03:47:33;;;;;;;7.30;4.33;;;;;;;;;;5059150;28;20206;-95
2023/05/14 03:50:00;;;;;;;4.70;4.30;;;;;;;;;;5059112;28;20194;-94
2023/05/14 03:52:27;;;;;;;5.70;4.47;;;;;;;;;;5059077;28;20234;-94
2023/05/14 03:54:55;;;;;;;5.00;3.70;;;;;;;;;;5058675;28;20217;-94
2023/05/14 03:57:22;;;;;;;3.60;3.30;;;;;;;;;;5058070;28;20233;-94
2023/05/14 03:59:49;;;;;;;3.33;3.03;;;;;;;;;;5058579;28;20198;-94
2023/05/14 04:02:16;;;;;;;3.30;3.10;;;;;;;;;;5057846;28;20229;-94
2023/05/14 04:04:43;;;;;;;3.17;2.97;;;;;;;;;;5057511;28;20222;-93
2023/05/14 04:07:11;;;;;;;3.43;3.13;;;;;;;;;;5056583;28;20234;-94
2023/05/14 04:09:38;;;;;;;3.03;2.83;;;;;;;;;;5057895;28;20213;-94
2023/05/14 04:12:07;;;;;;;4.60;3.20;;;;;;;;;;5057618;28;20238;-94
2023/05/14 04:14:34;;;;;;;4.10;3.80;;;;;;;;;;5058707;28;20471;-95
2023/05/14 04:17:01;;;;;;;5.53;4.10;;;;;;;;;;5057964;28;20300;-95
2023/05/14 04:19:28;;;;;;;4.30;4.00;;;;;;;;;;5058438;28;20317;-94
2023/05/14 04:21:55;;;;;;;4.30;3.90;;;;;;;;;;5057582;28;20240;-94
2023/05/14 04:24:22;;;;;;;4.30;3.60;;;;;;;;;;5058218;28;20237;-95
2023/05/14 04:26:49;;;;;;;5.03;3.87;;;;;;;;;;5056661;28;20699;-95
2023/05/14 04:29:18;;;;;;;4.50;4.13;;;;;;;;;;5061125;28;20288;-94
2023/05/14 04:32:07;;;;;;;4.47;4.07;;;;;;;;;;5059783;28;20234;-95
2023/05/14 04:34:34;;;;;;;5.07;4.57;;;;;;;;;;5060650;28;20653;-95
2023/05/14 04:37:02;;;;;;;4.83;3.87;;;;;;;;;;5060885;28;20585;-95
2023/05/14 04:39:29;;;;;;;4.30;4.00;;;;;;;;;;5061228;28;20198;-95
2023/05/14 04:41:56;;;;;;;4.73;4.33;;;;;;;;;;5059923;28;20614;-95
2023/05/14 04:44:25;;;;;;;5.60;5.10;;;;;;;;;;5060569;28;20217;-95
2023/05/14 04:46:52;;;;;;;6.00;5.50;;;;;;;;;;5060144;28;20264;-95
2023/05/14 04:49:19;;;;;;;7.57;6.87;;;;;;;;;;5059998;28;20209;-95
2023/05/14 04:51:47;;;;;;;8.83;7.40;;;;;;;;;;5059384;28;20279;-94
2023/05/14 04:54:14;;;;;;;8.93;7.33;;;;;;;;;;5059836;28;20293;-95
2023/05/14 04:56:41;;;;;;;13.80;8.00;;;;;;;;;;5059238;28;20230;-95
2023/05/14 04:59:08;;;;;;;8.93;8.03;;;;;;;;;;5060080;28;20259;-95
2023/05/14 05:01:36;;;;;;;9.73;8.73;;;;;;;;;;5059553;28;20236;-95
2023/05/14 05:04:03;;;;;;;10.37;8.73;;;;;;;;;;5061370;28;20226;-95
2023/05/14 05:06:31;;;;;;;11.87;8.63;;;;;;;;;;5059816;28;20232;-95
2023/05/14 05:08:58;;;;;;;10.07;9.10;;;;;;;;;;5059317;28;20215;-94
2023/05/14 05:11:25;;;;;;;10.27;9.17;;;;;;;;;;5058450;28;20252;-94
2023/05/14 05:13:52;;;;;;;11.33;9.33;;;;;;;;;;5059827;28;20253;-95
2023/05/14 05:16:19;;;;;;;11.17;9.97;;;;;;;;;;5057847;28;20244;-94
2023/05/14 05:18:48;;;;;;;12.37;10.70;;;;;;;;;;5059837;28;20218;-95
2023/05/14 05:21:15;;;;;;;10.47;9.47;;;;;;;;;;5058548;28;20245;-93
2023/05/14 05:23:42;;;;;;;11.53;10.20;;;;;;;;;;5059925;28;20229;-94
2023/05/14 05:26:09;;;;;;;12.20;10.77;;;;;;;;;;5059586;28;20241;-94
2023/05/14 05:28:36;;;;;;;13.07;10.83;;;;;;;;;;5059777;28;20198;-94
2023/05/14 05:31:03;;;;;;;14.57;10.93;;;;;;;;;;5058810;28;20230;-95
2023/05/14 05:33:30;;;;;;;13.43;11.60;;;;;;;;;;5059096;28;20684;-94
2023/05/14 05:36:10;;;;;;;17.47;11.93;;;;;;;;;;5069966;28;20274;-94
2023/05/14 05:38:37;;;;;;;18.10;11.77;;;;;;;;;;5065527;28;20645;-94
2023/05/14 05:41:05;;;;;;;12.97;11.37;;;;;;;;;;5058411;28;20762;-94
2023/05/14 05:43:33;;;;;;;12.33;10.50;;;;;;;;;;5060118;28;20233;-94
2023/05/14 05:46:00;;;;;;;11.70;9.50;;;;;;;;;;5049605;28;20725;-95
2023/05/14 05:48:28;;;;;;;12.47;10.13;;;;;;;;;;5038951;28;20203;-94
2023/05/14 05:50:55;;;;;;;14.33;11.40;;;;;;;;;;5038634;28;20256;-95
2023/05/14 05:53:23;;;;;;;10.83;8.93;;;;;;;;;;5038978;28;20367;-96
2023/05/14 05:55:51;;;;;;;9.23;8.23;;;;;;;;;;5038824;28;20227;-95
2023/05/14 05:58:18;;;;;;;8.80;7.90;;;;;;;;;;5039760;28;20268;-95
2023/05/14 06:00:45;;;;;;;8.80;7.93;;;;;;;;;;5040060;28;20236;-94
2023/05/14 06:03:13;;;;;;;9.43;8.13;;;;;;;;;;5058358;28;20230;-95
2023/05/14 06:05:40;;;;;;;9.60;7.60;;;;;;;;;;5058426;28;20234;-95
